Arp, Texas
Current Conditions -  °F | °C
As of 4:35 PM on Friday 28 Nov 2014 (Local Time) from KRFI Reporting Station
Clear Clear  
Wind Chill: 19°   Ceiling: Unl
Heat Index: 19°   Visibility: 10mi
Dew Point: 10°   Wind: 7mph
Humidity: 55%   Direction: 180°S
Pressure: 30.14"   Gusts: NA
Location:  32.23°N, 95.06°W
Report Text: KRFI 282235Z AUTO 18006KT 10SM CLR 19/10 A3014 RMK AO2 T01870095
Loading
Personal Weather Stations






























Interactive Weather Map New forecast layout! Learn more

10-Day Weather Forecast

Advertisements
Track Severe Weather on mobile